Time;durP1;ratioP1;P1;durP2;ratioP2;P2;SDS_P1;SDS_P2;PMS_P1;PMS_P2;Temp;Humidity;BMP_temperature;BMP_pressure;BME280_temperature;BME280_humidity;BME280_pressure;Samples;Min_cycle;Max_cycle;Signal;HPM_P1;HPM_P2
2023/12/19 00:02:00;;;;;;;20.50;12.10;;;;;;;5.12;100.00;99731.81;109187;1254;60203;-78
2023/12/19 00:04:27;;;;;;;24.40;12.00;;;;;;;5.08;100.00;99726.65;109502;1251;59768;-78
2023/12/19 00:06:53;;;;;;;18.70;10.70;;;;;;;5.03;100.00;99723.98;109596;1251;64209;-78
2023/12/19 00:09:21;;;;;;;21.20;9.90;;;;;;;4.98;100.00;99716.22;109619;1251;59728;-77
2023/12/19 00:11:48;;;;;;;20.70;11.30;;;;;;;4.92;100.00;99703.21;109591;1251;59899;-77
2023/12/19 00:14:14;;;;;;;14.90;10.60;;;;;;;4.84;100.00;99698.20;109600;1251;59840;-77
2023/12/19 00:16:41;;;;;;;16.00;9.40;;;;;;;4.74;100.00;99697.98;109586;1250;59775;-77
2023/12/19 00:19:09;;;;;;;18.20;10.30;;;;;;;4.62;100.00;99703.27;109603;1251;59773;-77
2023/12/19 00:21:40;;;;;;;17.30;10.40;;;;;;;4.49;100.00;99704.20;109580;1251;60147;-77
2023/12/19 00:24:06;;;;;;;18.40;10.50;;;;;;;4.37;100.00;99708.11;109618;1251;59820;-77
2023/12/19 00:26:33;;;;;;;14.70;10.10;;;;;;;4.26;100.00;99711.92;109606;1251;66921;-77
2023/12/19 00:28:59;;;;;;;16.90;10.40;;;;;;;4.16;100.00;99710.67;109634;1251;59842;-77
2023/12/19 00:31:26;;;;;;;16.50;10.20;;;;;;;4.06;100.00;99707.44;109646;1251;64025;-77
2023/12/19 00:33:53;;;;;;;19.30;10.60;;;;;;;3.98;100.00;99704.15;109577;1251;59777;-77
2023/12/19 00:36:21;;;;;;;20.20;10.60;;;;;;;3.90;100.00;99705.60;109553;1251;59831;-77
2023/12/19 00:38:47;;;;;;;17.20;10.20;;;;;;;3.84;100.00;99702.27;109561;1251;66449;-77
2023/12/19 00:41:15;;;;;;;18.40;10.70;;;;;;;3.78;100.00;99697.48;109601;1251;61016;-77
2023/12/19 00:43:43;;;;;;;15.70;10.00;;;;;;;3.74;100.00;99704.64;109557;1251;64698;-77
2023/12/19 00:46:11;;;;;;;17.90;9.10;;;;;;;3.70;100.00;99714.08;109168;1255;59921;-76
2023/12/19 00:48:38;;;;;;;14.40;8.80;;;;;;;3.66;100.00;99722.43;109144;1255;60106;-77
2023/12/19 00:51:10;;;;;;;15.30;9.10;;;;;;;3.64;100.00;99727.93;109201;1256;66782;-77
2023/12/19 00:53:38;;;;;;;16.90;8.80;;;;;;;3.64;100.00;99723.55;109182;1255;61038;-77
2023/12/19 00:56:09;;;;;;;13.90;8.20;;;;;;;3.64;100.00;99716.88;108986;1256;65157;-77
2023/12/19 00:58:36;;;;;;;16.60;8.60;;;;;;;3.62;100.00;99716.75;109249;1257;59814;-77
2023/12/19 01:01:07;;;;;;;15.70;9.50;;;;;;;3.61;100.00;99715.73;109183;1257;59763;-76
2023/12/19 01:03:37;;;;;;;;;;;;;;;3.59;100.00;99714.02;109285;1257;66945;-77
2023/12/19 01:06:04;;;;;;;17.00;9.40;;;;;;;3.57;100.00;99721.98;109257;1256;60125;-77
2023/12/19 01:08:31;;;;;;;15.70;10.00;;;;;;;3.52;100.00;99728.25;108848;1257;62455;-77
2023/12/19 01:10:57;;;;;;;17.60;10.80;;;;;;;3.47;100.00;99733.66;109245;1256;59721;-77
2023/12/19 01:13:24;;;;;;;16.50;11.20;;;;;;;3.44;100.00;99733.55;109260;1255;59837;-78
2023/12/19 01:15:50;;;;;;;17.40;10.40;;;;;;;3.43;100.00;99718.48;109258;1256;60377;-78
2023/12/19 01:18:17;;;;;;;17.30;9.70;;;;;;;3.40;100.00;99713.30;109567;1251;61140;-77
2023/12/19 01:20:44;;;;;;;18.00;10.70;;;;;;;3.35;100.00;99721.17;109579;1251;64729;-77
2023/12/19 01:23:11;;;;;;;16.20;9.60;;;;;;;3.28;100.00;99720.09;109548;1251;59791;-77
2023/12/19 01:25:39;;;;;;;18.90;10.30;;;;;;;3.25;100.00;99725.63;109591;1251;60082;-78
2023/12/19 01:28:06;;;;;;;15.80;10.20;;;;;;;3.23;100.00;99728.66;109628;1251;67485;-78
2023/12/19 01:30:32;;;;;;;17.30;9.50;;;;;;;3.21;100.00;99722.75;109605;1255;61401;-77
2023/12/19 01:32:59;;;;;;;14.80;9.70;;;;;;;3.20;100.00;99718.02;109585;1251;59901;-78
2023/12/19 01:35:25;;;;;;;16.30;10.00;;;;;;;3.18;100.00;99716.30;109524;1251;59706;-77
2023/12/19 01:37:52;;;;;;;14.60;8.50;;;;;;;3.15;100.00;99709.89;109648;1251;60008;-77
2023/12/19 01:40:18;;;;;;;14.60;8.70;;;;;;;3.15;100.00;99699.01;109568;1251;60412;-77
2023/12/19 01:42:45;;;;;;;13.00;9.10;;;;;;;3.15;100.00;99691.10;109589;1250;61199;-77
2023/12/19 01:45:13;;;;;;;14.60;8.60;;;;;;;3.14;100.00;99684.29;109596;1251;62451;-77
2023/12/19 01:47:43;;;;;;;14.70;9.40;;;;;;;3.16;100.00;99679.32;109535;1251;60132;-77
2023/12/19 01:50:12;;;;;;;18.20;9.80;;;;;;;3.19;100.00;99670.98;109581;1251;59822;-78
2023/12/19 01:52:42;;;;;;;15.30;9.50;;;;;;;3.21;100.00;99663.39;109571;1251;67807;-77
2023/12/19 01:55:09;;;;;;;18.10;9.40;;;;;;;3.21;100.00;99659.52;109606;1251;61086;-76
2023/12/19 01:57:36;;;;;;;16.60;9.50;;;;;;;3.23;100.00;99659.13;109523;1251;62740;-77
2023/12/19 02:00:03;;;;;;;15.20;9.50;;;;;;;3.23;100.00;99654.73;109521;1251;60119;-77
2023/12/19 02:02:31;;;;;;;15.00;8.50;;;;;;;3.24;100.00;99648.92;109413;1251;60074;-77
2023/12/19 02:04:58;;;;;;;13.50;8.90;;;;;;;3.25;100.00;99637.66;109545;1256;67764;-78
2023/12/19 02:07:25;;;;;;;13.50;8.60;;;;;;;3.24;100.00;99643.63;109602;1251;60761;-78
2023/12/19 02:09:52;;;;;;;13.10;7.90;;;;;;;3.23;100.00;99647.34;109347;1251;64091;-78
2023/12/19 02:12:19;;;;;;;12.70;9.00;;;;;;;3.23;100.00;99645.06;109542;1251;59686;-78
2023/12/19 02:14:47;;;;;;;12.90;8.20;;;;;;;3.23;100.00;99641.73;109575;1255;59933;-78
2023/12/19 02:17:16;;;;;;;16.60;9.10;;;;;;;3.21;100.00;99650.58;109604;1251;67952;-78
2023/12/19 02:19:45;;;;;;;18.20;8.80;;;;;;;3.18;100.00;99656.98;109634;1251;59847;-78
2023/12/19 02:22:12;;;;;;;14.30;9.40;;;;;;;3.14;100.00;99655.67;109565;1254;64229;-78
2023/12/19 02:24:39;;;;;;;16.00;10.40;;;;;;;3.10;100.00;99656.13;109564;1251;59928;-79
2023/12/19 02:27:07;;;;;;;13.00;8.80;;;;;;;3.07;100.00;99656.35;109392;1251;59837;-78
2023/12/19 02:29:34;;;;;;;15.20;9.70;;;;;;;3.08;100.00;99651.79;109567;1251;67900;-78
2023/12/19 02:32:01;;;;;;;16.20;9.40;;;;;;;3.11;100.00;99647.68;109573;1251;60154;-78
2023/12/19 02:34:29;;;;;;;15.80;9.70;;;;;;;3.16;100.00;99647.02;109566;1251;65246;-78
2023/12/19 02:36:56;;;;;;;14.50;9.40;;;;;;;3.22;100.00;99642.82;109534;1251;59833;-77
2023/12/19 02:39:23;;;;;;;13.00;8.90;;;;;;;3.26;100.00;99636.91;109556;1251;59827;-77
2023/12/19 02:41:49;;;;;;;17.50;9.90;;;;;;;3.28;100.00;99635.80;109583;1251;68010;-77
2023/12/19 02:44:16;;;;;;;16.80;10.50;;;;;;;3.28;100.00;99631.93;109370;1251;60266;-79
2023/12/19 02:46:43;;;;;;;17.00;10.10;;;;;;;3.28;100.00;99639.67;109542;1251;65339;-77
2023/12/19 02:49:09;;;;;;;14.90;9.80;;;;;;;3.28;100.00;99630.90;109540;1251;59842;-77
2023/12/19 02:51:36;;;;;;;14.00;9.60;;;;;;;3.27;100.00;99626.70;109572;1251;60766;-77
2023/12/19 02:54:02;;;;;;;13.00;9.60;;;;;;;3.26;100.00;99625.66;109619;1251;65646;-78
2023/12/19 02:56:30;;;;;;;17.00;10.60;;;;;;;3.26;100.00;99623.38;109626;1251;59915;-77
2023/12/19 02:58:57;;;;;;;15.20;10.20;;;;;;;3.26;100.00;99615.64;109577;1251;65126;-78
2023/12/19 03:01:23;;;;;;;11.30;8.10;;;;;;;3.25;100.00;99611.27;109531;1251;59741;-77
2023/12/19 03:03:50;;;;;;;9.80;7.00;;;;;;;3.28;100.00;99619.30;109603;1251;60407;-77
2023/12/19 03:06:16;;;;;;;7.20;5.30;;;;;;;3.36;100.00;99626.11;109570;1251;67653;-77
2023/12/19 03:08:47;;;;;;;6.60;4.70;;;;;;;3.54;100.00;99633.52;109612;1251;60052;-77
2023/12/19 03:11:14;;;;;;;6.10;3.80;;;;;;;3.80;100.00;99624.67;109599;1251;65029;-77
2023/12/19 03:13:41;;;;;;;4.20;3.60;;;;;;;4.08;100.00;99614.86;107254;1251;1002969;-77
2023/12/19 03:16:08;;;;;;;4.90;3.10;;;;;;;4.34;100.00;99598.77;109566;1251;59859;-77
2023/12/19 03:18:34;;;;;;;3.70;2.60;;;;;;;4.60;100.00;99596.87;109520;1251;65539;-77
2023/12/19 03:21:01;;;;;;;3.80;2.80;;;;;;;4.89;100.00;99599.59;109593;1250;61171;-77
2023/12/19 03:23:28;;;;;;;3.30;2.80;;;;;;;5.18;100.00;99594.02;109564;1251;65087;-77
2023/12/19 03:25:55;;;;;;;3.70;2.80;;;;;;;5.40;100.00;99579.48;109582;1251;59754;-78
2023/12/19 03:28:21;;;;;;;3.30;2.10;;;;;;;5.62;100.00;99572.51;109574;1251;59807;-77
2023/12/19 03:30:50;;;;;;;3.90;2.70;;;;;;;5.87;100.00;99573.33;109597;1251;66801;-77
2023/12/19 03:33:17;;;;;;;3.10;2.20;;;;;;;6.13;100.00;99569.34;109568;1251;60003;-77
2023/12/19 03:35:43;;;;;;;4.00;2.70;;;;;;;6.29;100.00;99567.13;109561;1251;64827;-77
2023/12/19 03:38:11;;;;;;;3.30;2.10;;;;;;;6.43;100.00;99558.24;109544;1251;59770;-78
2023/12/19 03:40:37;;;;;;;2.60;2.20;;;;;;;6.55;100.00;99549.10;109550;1251;59885;-77
2023/12/19 03:43:05;;;;;;;3.20;2.20;;;;;;;6.69;100.00;99545.55;109602;1251;67940;-77
2023/12/19 03:45:31;;;;;;;3.80;2.20;;;;;;;6.80;100.00;99550.02;109541;1251;60119;-77
2023/12/19 03:47:58;;;;;;;3.10;2.30;;;;;;;6.91;100.00;99545.31;109585;1251;64029;-77
2023/12/19 03:50:24;;;;;;;2.60;2.40;;;;;;;6.98;100.00;99552.60;109637;1251;60063;-77
2023/12/19 03:52:51;;;;;;;5.80;3.00;;;;;;;7.07;100.00;99560.53;109558;1251;59904;-77
2023/12/19 03:55:20;;;;;;;4.20;2.50;;;;;;;7.17;100.00;99567.84;109649;1251;66763;-77
2023/12/19 03:57:47;;;;;;;2.80;2.10;;;;;;;7.23;100.00;99573.08;109374;1251;60639;-77
2023/12/19 04:00:14;;;;;;;2.40;1.90;;;;;;;7.24;100.00;99572.12;109563;1251;64023;-77
2023/12/19 04:02:42;;;;;;;2.00;1.80;;;;;;;7.25;100.00;99583.25;109594;1251;59740;-78
2023/12/19 04:05:09;;;;;;;2.80;2.20;;;;;;;7.29;100.00;99586.60;109586;1251;59839;-78
2023/12/19 04:07:35;;;;;;;2.90;2.20;;;;;;;7.32;100.00;99581.52;109623;1251;67938;-78
2023/12/19 04:10:02;;;;;;;2.40;2.20;;;;;;;7.36;100.00;99582.20;109634;1251;60756;-78
2023/12/19 04:12:28;;;;;;;4.40;2.70;;;;;;;7.39;100.00;99581.89;109577;1251;65017;-78
2023/12/19 04:14:55;;;;;;;3.00;2.20;;;;;;;7.39;100.00;99583.00;109545;1251;59813;-77
2023/12/19 04:17:22;;;;;;;3.00;2.10;;;;;;;7.40;100.00;99576.54;109593;1251;59767;-78
2023/12/19 04:19:48;;;;;;;3.80;2.50;;;;;;;7.46;100.00;99561.43;109581;1251;67831;-78
2023/12/19 04:22:15;;;;;;;3.70;2.30;;;;;;;7.53;100.00;99561.10;109619;1250;59795;-78
2023/12/19 04:24:42;;;;;;;2.60;2.00;;;;;;;7.59;100.00;99551.82;109333;1256;62850;-78
2023/12/19 04:27:08;;;;;;;3.70;2.30;;;;;;;7.62;100.00;99548.48;109583;1251;59831;-78
2023/12/19 04:29:35;;;;;;;2.60;2.40;;;;;;;7.61;100.00;99549.27;109570;1251;59672;-77
2023/12/19 04:32:03;;;;;;;3.80;2.40;;;;;;;7.57;100.00;99544.85;109610;1251;67950;-77
2023/12/19 04:34:29;;;;;;;4.50;2.60;;;;;;;7.56;100.00;99545.06;109583;1251;61071;-77
2023/12/19 04:36:56;;;;;;;3.00;2.60;;;;;;;7.57;100.00;99544.14;109539;1251;65082;-78
2023/12/19 04:39:24;;;;;;;3.10;2.40;;;;;;;7.57;100.00;99542.54;109601;1251;59777;-78
2023/12/19 04:41:50;;;;;;;5.20;2.90;;;;;;;7.56;100.00;99548.42;109299;1250;59874;-77
2023/12/19 04:44:17;;;;;;;3.30;2.40;;;;;;;7.53;100.00;99550.85;109603;1251;66769;-77
2023/12/19 04:46:44;;;;;;;3.50;2.30;;;;;;;7.52;100.00;99550.92;109645;1251;61007;-76
2023/12/19 04:49:11;;;;;;;3.70;2.20;;;;;;;7.49;100.00;99548.75;109584;1251;63936;-77
2023/12/19 04:51:37;;;;;;;5.00;2.80;;;;;;;7.42;100.00;99540.55;109565;1250;59779;-77
2023/12/19 04:54:05;;;;;;;3.10;2.60;;;;;;;7.36;100.00;99533.06;109447;1251;59939;-78
2023/12/19 04:56:32;;;;;;;4.60;2.90;;;;;;;7.34;100.00;99534.95;109571;1251;67509;-78
2023/12/19 04:58:59;;;;;;;5.20;2.70;;;;;;;7.32;100.00;99532.73;109268;1251;59869;-78
2023/12/19 05:01:25;;;;;;;4.40;2.60;;;;;;;7.30;100.00;99532.48;109546;1251;65075;-78
2023/12/19 05:03:52;;;;;;;4.00;2.50;;;;;;;7.27;100.00;99538.77;109539;1251;59981;-78
2023/12/19 05:06:18;;;;;;;4.00;2.80;;;;;;;7.26;100.00;99544.98;109595;1251;59847;-78
2023/12/19 05:08:45;;;;;;;2.70;2.40;;;;;;;7.27;100.00;99545.32;109571;1251;67859;-78
2023/12/19 05:11:12;;;;;;;4.70;3.00;;;;;;;7.25;100.00;99548.94;109550;1251;60218;-78
2023/12/19 05:13:39;;;;;;;5.00;3.20;;;;;;;7.22;100.00;99546.95;109512;1251;63938;-78
2023/12/19 05:16:11;;;;;;;5.50;2.80;;;;;;;7.19;100.00;99547.08;109583;1251;59945;-79
2023/12/19 05:18:37;;;;;;;4.10;3.00;;;;;;;7.17;100.00;99549.67;109567;1251;59888;-78
2023/12/19 05:21:04;;;;;;;4.50;2.70;;;;;;;7.14;100.00;99549.09;109526;1251;67805;-78
2023/12/19 05:23:31;;;;;;;3.30;2.80;;;;;;;7.10;100.00;99545.89;109571;1251;61074;-78
2023/12/19 05:25:57;;;;;;;4.00;3.00;;;;;;;7.07;100.00;99546.22;109553;1251;65163;-77
2023/12/19 05:28:24;;;;;;;4.60;2.90;;;;;;;7.07;100.00;99552.41;109281;1251;60753;-77
2023/12/19 05:30:51;;;;;;;3.40;2.50;;;;;;;7.07;100.00;99562.09;109620;1251;60173;-78
2023/12/19 05:33:18;;;;;;;3.50;2.30;;;;;;;7.05;100.00;99568.55;109537;1251;66948;-77
2023/12/19 05:35:44;;;;;;;4.00;2.50;;;;;;;7.01;100.00;99564.99;109564;1251;61510;-81
2023/12/19 05:38:11;;;;;;;3.80;2.60;;;;;;;6.97;100.00;99562.88;109552;1251;63958;-77
2023/12/19 05:40:42;;;;;;;3.90;2.20;;;;;;;6.93;100.00;99558.84;109573;1251;59834;-77
2023/12/19 05:43:09;;;;;;;3.70;2.50;;;;;;;6.88;100.00;99555.51;109523;1251;59686;-77
2023/12/19 05:45:35;;;;;;;2.80;2.30;;;;;;;6.84;100.00;99549.15;109537;1251;66892;-77
2023/12/19 05:48:02;;;;;;;3.40;2.50;;;;;;;6.79;100.00;99550.59;109566;1251;61120;-77
2023/12/19 05:50:29;;;;;;;3.40;2.40;;;;;;;6.77;100.00;99552.80;109590;1251;65019;-77
2023/12/19 05:52:55;;;;;;;4.60;2.60;;;;;;;6.73;100.00;99553.83;109539;1251;59748;-77
2023/12/19 05:55:22;;;;;;;3.50;2.60;;;;;;;6.72;100.00;99555.31;109559;1251;59852;-77
2023/12/19 05:57:48;;;;;;;3.60;2.50;;;;;;;6.71;100.00;99559.77;109618;1251;68124;-77
2023/12/19 06:00:15;;;;;;;5.70;2.80;;;;;;;6.70;100.00;99557.70;109557;1251;61511;-78
2023/12/19 06:02:42;;;;;;;4.60;2.90;;;;;;;6.68;100.00;99555.63;109368;1251;64099;-77
2023/12/19 06:05:09;;;;;;;4.60;2.60;;;;;;;6.68;100.00;99557.59;109564;1251;59855;-77
2023/12/19 06:07:37;;;;;;;4.50;2.80;;;;;;;6.66;100.00;99553.60;109372;1251;59824;-77
2023/12/19 06:10:08;;;;;;;5.50;3.20;;;;;;;6.64;100.00;99548.73;109601;1251;66725;-77
2023/12/19 06:12:35;;;;;;;4.80;2.60;;;;;;;6.61;100.00;99542.69;109057;1251;61031;-77
2023/12/19 06:15:02;;;;;;;5.40;3.40;;;;;;;6.57;100.00;99540.36;109604;1251;64148;-77
2023/12/19 06:17:29;;;;;;;5.20;3.10;;;;;;;6.52;100.00;99540.26;109192;1254;59929;-77
2023/12/19 06:19:56;;;;;;;4.30;3.00;;;;;;;6.48;100.00;99539.70;109324;1254;59758;-77
2023/12/19 06:22:22;;;;;;;4.40;3.10;;;;;;;6.46;100.00;99536.62;109334;1253;66981;-79
2023/12/19 06:24:50;;;;;;;5.80;3.40;;;;;;;6.43;100.00;99526.33;109339;1254;61043;-78
2023/12/19 06:27:16;;;;;;;4.40;2.90;;;;;;;6.43;100.00;99512.21;109325;1254;64036;-77
2023/12/19 06:29:43;;;;;;;5.70;3.30;;;;;;;6.45;100.00;99505.77;109323;1254;59901;-79
2023/12/19 06:32:12;;;;;;;7.00;3.30;;;;;;;6.46;100.00;99500.60;109356;1254;59976;-78
2023/12/19 06:34:39;;;;;;;4.60;3.40;;;;;;;6.47;100.00;99494.05;109362;1254;68226;-78
2023/12/19 06:37:05;;;;;;;5.00;3.50;;;;;;;6.50;100.00;99492.30;109346;1254;61132;-79
2023/12/19 06:39:32;;;;;;;9.10;3.20;;;;;;;6.56;100.00;99491.35;109302;1254;63972;-78
2023/12/19 06:41:58;;;;;;;4.20;2.80;;;;;;;6.62;100.00;99489.36;109306;1254;60568;-78
2023/12/19 06:44:25;;;;;;;5.10;3.70;;;;;;;6.65;100.00;99481.11;109353;1253;59926;-78
2023/12/19 06:46:52;;;;;;;8.10;4.40;;;;;;;6.67;100.00;99481.87;109311;1254;66927;-78
2023/12/19 06:49:19;;;;;;;8.60;5.10;;;;;;;6.70;100.00;99474.48;109165;1251;60235;-78
2023/12/19 06:51:46;;;;;;;7.60;5.00;;;;;;;6.76;100.00;99477.77;109361;1251;65096;-79
2023/12/19 06:54:13;;;;;;;7.50;5.20;;;;;;;6.83;100.00;99487.91;109568;1251;59821;-79
2023/12/19 06:56:40;;;;;;;7.00;4.30;;;;;;;6.88;100.00;99505.51;109611;1251;59831;-77
2023/12/19 06:59:06;;;;;;;6.90;3.90;;;;;;;6.93;100.00;99519.42;109556;1251;67727;-77
2023/12/19 07:01:33;;;;;;;9.90;4.00;;;;;;;6.99;100.00;99523.93;109584;1250;61033;-77
2023/12/19 07:04:00;;;;;;;7.10;4.40;;;;;;;7.02;100.00;99520.45;109570;1251;64188;-78
2023/12/19 07:06:26;;;;;;;8.40;4.30;;;;;;;7.02;100.00;99520.29;109564;1251;60147;-77
2023/12/19 07:08:54;;;;;;;6.60;4.30;;;;;;;6.99;100.00;99524.99;109507;1251;59824;-77
2023/12/19 07:11:21;;;;;;;9.00;4.60;;;;;;;6.94;100.00;99522.54;109511;1251;67545;-78
2023/12/19 07:13:47;;;;;;;9.00;5.20;;;;;;;6.90;100.00;99521.69;109582;1251;61069;-77
2023/12/19 07:16:17;;;;;;;10.60;6.10;;;;;;;6.84;100.00;99517.33;109533;1251;62801;-77
2023/12/19 07:18:45;;;;;;;9.60;5.50;;;;;;;6.79;100.00;99518.24;109482;1251;59793;-77
2023/12/19 07:21:22;;;;;;;8.50;4.90;;;;;;;6.76;100.00;99524.40;109598;1251;59837;-77
2023/12/19 07:23:50;;;;;;;10.00;5.40;;;;;;;6.75;100.00;99514.70;109545;1251;66895;-77
2023/12/19 07:26:24;;;;;;;7.90;4.90;;;;;;;6.77;100.00;99507.58;109583;1251;61075;-77
2023/12/19 07:28:51;;;;;;;10.50;5.60;;;;;;;6.78;100.00;99503.13;109549;1251;64817;-77
2023/12/19 07:31:22;;;;;;;6.80;4.80;;;;;;;6.84;100.00;99498.67;109538;1251;59863;-77
2023/12/19 07:33:51;;;;;;;8.00;4.90;;;;;;;6.89;100.00;99494.86;109339;1251;59862;-77
2023/12/19 07:36:18;;;;;;;7.40;4.60;;;;;;;6.94;100.00;99495.70;109564;1251;65714;-78
2023/12/19 07:38:44;;;;;;;8.70;5.20;;;;;;;6.98;100.00;99490.39;109661;1251;60286;-79
2023/12/19 07:41:11;;;;;;;7.10;5.00;;;;;;;7.03;100.00;99492.46;109554;1251;65335;-78
2023/12/19 07:43:38;;;;;;;7.60;4.40;;;;;;;7.09;100.00;99492.73;109372;1251;59898;-77
2023/12/19 07:46:06;;;;;;;8.80;4.90;;;;;;;7.15;100.00;99491.59;109615;1251;59856;-79
2023/12/19 07:48:33;;;;;;;10.50;5.10;;;;;;;7.19;100.00;99494.06;109602;1251;67698;-77
2023/12/19 07:50:59;;;;;;;8.20;5.30;;;;;;;7.23;100.00;99489.27;109575;1251;61126;-78
2023/12/19 07:53:26;;;;;;;8.50;5.60;;;;;;;7.29;100.00;99484.07;109546;1251;65021;-78
2023/12/19 07:55:54;;;;;;;7.80;4.90;;;;;;;7.34;100.00;99484.91;109487;1251;59767;-78
2023/12/19 07:58:20;;;;;;;8.00;5.50;;;;;;;7.38;100.00;99489.11;109461;1251;59945;-77
2023/12/19 08:00:47;;;;;;;10.30;5.90;;;;;;;7.44;100.00;99493.27;109595;1251;66823;-77
2023/12/19 08:03:15;;;;;;;12.10;6.00;;;;;;;7.51;100.00;99493.14;109553;1251;61021;-77
2023/12/19 08:05:48;;;;;;;9.70;5.80;;;;;;;7.57;100.00;99494.64;109545;1251;63974;-78
2023/12/19 08:08:16;;;;;;;9.30;6.40;;;;;;;7.62;100.00;99493.33;109328;1251;59927;-79
2023/12/19 08:10:44;;;;;;;12.00;6.20;;;;;;;7.66;100.00;99494.03;109597;1251;59849;-79
2023/12/19 08:13:12;;;;;;;11.60;6.30;;;;;;;7.65;100.00;99492.46;109433;1251;66764;-79
2023/12/19 08:15:41;;;;;;;13.10;6.90;;;;;;;7.65;100.00;99490.38;109596;1251;61108;-78
2023/12/19 08:18:09;;;;;;;11.80;5.70;;;;;;;7.64;100.00;99484.23;109547;1251;65112;-77
2023/12/19 08:20:35;;;;;;;13.00;6.60;;;;;;;7.63;100.00;99481.96;109587;1251;59831;-78
2023/12/19 08:23:02;;;;;;;10.60;5.60;;;;;;;7.62;100.00;99482.34;109599;1251;59913;-78
2023/12/19 08:25:29;;;;;;;10.40;6.00;;;;;;;7.60;100.00;99478.91;109565;1250;66842;-78
2023/12/19 08:27:55;;;;;;;8.90;5.90;;;;;;;7.58;100.00;99482.04;109587;1250;61289;-77
2023/12/19 08:30:27;;;;;;;9.50;5.80;;;;;;;7.56;100.00;99486.00;109307;1251;65054;-78
2023/12/19 08:32:54;;;;;;;9.50;5.60;;;;;;;7.56;100.00;99484.05;109402;1251;59837;-78
2023/12/19 08:35:22;;;;;;;10.50;5.70;;;;;;;7.57;100.00;99477.13;109543;1251;59812;-78
2023/12/19 08:37:49;;;;;;;9.90;5.70;;;;;;;7.58;100.00;99477.09;109230;1251;67229;-78
2023/12/19 08:40:16;;;;;;;8.80;5.90;;;;;;;7.59;100.00;99472.09;109197;1251;61154;-77
2023/12/19 08:42:43;;;;;;;12.10;6.20;;;;;;;7.62;100.00;99469.46;109574;1251;65082;-78
2023/12/19 08:45:15;;;;;;;10.70;6.50;;;;;;;7.67;100.00;99469.39;109551;1251;59840;-78
2023/12/19 08:47:43;;;;;;;10.50;6.60;;;;;;;7.74;100.00;99469.42;109553;1251;59833;-78
2023/12/19 08:50:12;;;;;;;9.60;6.80;;;;;;;7.81;100.00;99467.30;109431;1251;67917;-79
2023/12/19 08:52:41;;;;;;;10.80;7.20;;;;;;;7.88;100.00;99467.36;109631;1251;60196;-78
2023/12/19 08:55:08;;;;;;;12.00;6.80;;;;;;;7.94;100.00;99465.31;109554;1251;63724;-77
2023/12/19 08:57:35;;;;;;;11.30;7.10;;;;;;;7.98;100.00;99457.49;109542;1251;60061;-79
2023/12/19 09:00:03;;;;;;;14.20;7.80;;;;;;;8.02;100.00;99455.14;109541;1251;59801;-77
2023/12/19 09:02:30;;;;;;;10.60;7.10;;;;;;;8.07;100.00;99450.47;109595;1250;67886;-78
2023/12/19 09:04:56;;;;;;;12.20;7.30;;;;;;;8.13;100.00;99443.29;109620;1251;60734;-77
2023/12/19 09:07:23;;;;;;;12.90;8.00;;;;;;;8.20;100.00;99438.52;109557;1251;65038;-78
2023/12/19 09:09:54;;;;;;;14.10;7.40;;;;;;;8.26;100.00;99429.55;109508;1251;59773;-78
2023/12/19 09:12:20;;;;;;;11.20;7.40;;;;;;;8.31;100.00;99420.44;109593;1251;59910;-78
2023/12/19 09:14:47;;;;;;;11.60;6.90;;;;;;;8.37;100.00;99411.13;109573;1251;66907;-79
2023/12/19 09:17:14;;;;;;;11.80;7.60;;;;;;;8.44;100.00;99405.84;109430;1251;60042;-79
2023/12/19 09:19:40;;;;;;;12.10;7.50;;;;;;;8.50;100.00;99401.08;109571;1251;63978;-79
2023/12/19 09:22:07;;;;;;;9.80;6.40;;;;;;;8.53;100.00;99400.91;109611;1251;59866;-79
2023/12/19 09:24:33;;;;;;;12.20;6.70;;;;;;;8.55;100.00;99399.21;109575;1251;59933;-79
2023/12/19 09:27:00;;;;;;;12.20;6.50;;;;;;;8.54;100.00;99398.02;109566;1251;66865;-78
2023/12/19 09:29:27;;;;;;;7.90;6.30;;;;;;;8.53;100.00;99394.55;109589;1251;60128;-77
2023/12/19 09:31:54;;;;;;;10.30;6.20;;;;;;;8.52;100.00;99389.44;109566;1251;65137;-78
2023/12/19 09:34:20;;;;;;;12.00;5.80;;;;;;;8.51;100.00;99384.52;109540;1251;59848;-78
2023/12/19 09:36:47;;;;;;;9.40;5.80;;;;;;;8.54;100.00;99382.78;109530;1251;59690;-78
2023/12/19 09:39:14;;;;;;;10.20;6.30;;;;;;;8.62;100.00;99381.88;109624;1251;67534;-78
2023/12/19 09:41:47;;;;;;;10.60;6.10;;;;;;;8.71;100.00;99379.11;109559;1251;59933;-79
2023/12/19 09:44:14;;;;;;;12.00;6.00;;;;;;;8.82;100.00;99374.95;109187;1251;65115;-79
2023/12/19 09:46:49;;;;;;;10.40;6.00;;;;;;;8.95;100.00;99362.56;109418;1251;59917;-77
2023/12/19 09:49:21;;;;;;;7.90;5.30;;;;;;;9.08;100.00;99355.83;109554;1251;59768;-78
2023/12/19 09:51:54;;;;;;;7.40;5.10;;;;;;;9.18;100.00;99350.31;109555;1251;66788;-79
2023/12/19 09:54:21;;;;;;;8.90;5.60;;;;;;;9.24;100.00;99343.09;109588;1251;61253;-79
2023/12/19 09:56:49;;;;;;;8.80;5.20;;;;;;;9.25;100.00;99336.98;109628;1251;65081;-79
2023/12/19 09:59:17;;;;;;;9.70;5.20;;;;;;;9.24;100.00;99332.09;109586;1251;59740;-79
2023/12/19 10:01:45;;;;;;;11.00;5.80;;;;;;;9.22;100.00;99334.31;109268;1251;59850;-78
2023/12/19 10:04:16;;;;;;;10.40;5.90;;;;;;;9.23;100.00;99338.86;109243;1251;67590;-78
2023/12/19 10:06:58;;;;;;;9.20;5.80;;;;;;;9.25;100.00;99342.10;109604;1251;61105;-78
2023/12/19 10:09:25;;;;;;;13.30;6.30;;;;;;;9.25;100.00;99342.12;109608;1251;64338;-79
2023/12/19 10:12:09;;;;;;;11.80;5.70;;;;;;;9.20;100.00;99339.00;109578;1250;60114;-78
2023/12/19 10:14:36;;;;;;;8.80;5.70;;;;;;;9.17;100.00;99333.52;109526;1251;59839;-78
2023/12/19 10:17:06;;;;;;;10.80;5.90;;;;;;;9.15;100.00;99323.84;109599;1250;67874;-79
2023/12/19 10:19:34;;;;;;;9.80;5.40;;;;;;;9.15;100.00;99320.01;109534;1251;60209;-78
2023/12/19 10:22:08;;;;;;;7.90;5.30;;;;;;;9.10;100.00;99314.21;109601;1251;64756;-79
2023/12/19 10:24:35;;;;;;;9.80;5.20;;;;;;;9.06;100.00;99304.20;109570;1251;59781;-78
2023/12/19 10:27:05;;;;;;;9.20;5.00;;;;;;;9.02;100.00;99303.70;109518;1251;59820;-77
2023/12/19 10:29:42;;;;;;;9.20;5.60;;;;;;;9.02;100.00;99299.43;109589;1251;67848;-77
2023/12/19 10:32:22;;;;;;;10.00;5.30;;;;;;;9.01;100.00;99290.63;109620;1251;60807;-77
2023/12/19 10:34:57;;;;;;;8.60;5.70;;;;;;;9.03;100.00;99281.64;109506;1251;64080;-78
2023/12/19 10:37:27;;;;;;;7.20;4.70;;;;;;;9.03;100.00;99273.66;109579;1251;59860;-79
2023/12/19 10:40:19;;;;;;;8.90;5.10;;;;;;;9.12;100.00;99266.63;109574;1251;59873;-79
2023/12/19 10:42:56;;;;;;;7.50;4.60;;;;;;;9.27;100.00;99263.96;108903;1259;66908;-79
2023/12/19 10:45:24;;;;;;;6.10;4.60;;;;;;;9.44;100.00;99267.45;109006;1259;61253;-79
2023/12/19 10:47:51;;;;;;;7.60;4.60;;;;;;;9.51;100.00;99265.13;108780;1259;65017;-79
2023/12/19 10:50:18;;;;;;;7.50;4.50;;;;;;;9.61;100.00;99263.05;108804;1259;59985;-79
2023/12/19 10:52:50;;;;;;;6.20;4.60;;;;;;;9.80;100.00;99255.23;108967;1259;59821;-78
2023/12/19 10:55:18;;;;;;;8.40;4.70;;;;;;;10.00;100.00;99248.70;108910;1259;68114;-78
2023/12/19 10:57:47;;;;;;;7.90;5.20;;;;;;;10.17;100.00;99242.19;108921;1259;61489;-78
2023/12/19 11:00:21;;;;;;;8.80;5.60;;;;;;;10.21;100.00;99236.04;108935;1259;64043;-78
2023/12/19 11:03:05;;;;;;;7.80;5.30;;;;;;;10.23;100.00;99236.11;108904;1259;59812;-78
2023/12/19 11:05:43;;;;;;;8.80;5.10;;;;;;;10.25;100.00;99236.36;109001;1259;59914;-78
2023/12/19 11:08:15;;;;;;;8.90;5.40;;;;;;;10.28;100.00;99230.86;108955;1259;66772;-77
2023/12/19 11:10:50;;;;;;;6.50;5.50;;;;;;;10.33;100.00;99227.54;108963;1259;61374;-78
2023/12/19 11:13:17;;;;;;;6.10;4.80;;;;;;;10.37;100.00;99221.45;108901;1259;65094;-78
2023/12/19 11:15:55;;;;;;;6.70;4.70;;;;;;;10.39;100.00;99216.16;108956;1258;59946;-78
2023/12/19 11:18:31;;;;;;;8.80;5.00;;;;;;;10.40;100.00;99208.29;108896;1259;59918;-78
2023/12/19 11:21:07;;;;;;;6.70;5.30;;;;;;;10.47;100.00;99204.11;109520;1250;67889;-78
2023/12/19 11:23:40;;;;;;;9.10;5.10;;;;;;;10.55;100.00;99196.64;109442;1251;60154;-78
2023/12/19 11:26:26;;;;;;;8.20;5.40;;;;;;;10.63;100.00;99193.15;109509;1251;65133;-78